AirNav   Textron
 
 274 users online  

54WI Flyplassen Airport
Woodville, Wisconsin, USA

GOING TO WOODVILLE?


FAA INFORMATION EFFECTIVE 20 JULY 2017

Location

FAA Identifier: 54WI
Lat/Long: 45-00-29.8710N / 092-16-30.6780W
45-00.497850N / 092-16.511300W
45.0082975 / -92.2751883
(estimated)
Elevation: 1300 ft. / 396 m (estimated)
Variation: 02E (1985)
From city: 1 mile N of WOODVILLE, WI
Time zone: UTC -5 (UTC -6 during Standard Time)
Zip code: 54028

Airport Operations

Airport use: Private use. Permission required prior to landing
Activation date: 10/1979
Control tower: no
ARTCC: MINNEAPOLIS CENTER
FSS: GREEN BAY FLIGHT SERVICE STATION
Attendance: UNATNDD
Wind indicator: yes
Segmented circle: no

Airport Communications

WX AWOS-3 at RNH (14 nm NW): 120.0 (715-246-3202)
WX AWOS-3 at LUM (19 nm E): 118.025 (715-235-5342)

Nearby radio navigation aids

VOR radial/distance  VOR name  Freq  Var
EAUr277/34.5EAU CLAIRE VORTAC112.9004E

 
NDB name  Hdg/Dist  Freq  Var  ID
HOPEY071/29.540003EPPI .--. .--. ..

Airport Services

Runway Information

Runway 18/36

Dimensions: 1425 x 75 ft. / 434 x 23 m
Surface: turf
RUNWAY 18  RUNWAY 36
Traffic pattern: leftleft

Airport Ownership and Management from official FAA records

Ownership: Privately-owned
Owner: THOMAS L OLSON
733 250TH ST
WOODVILLE, WI 54028
Phone 715-698-3433
Manager: THOMAS L OLSON
733 250TH ST
WOODVILLE, WI 54028
Phone 715-698-3433

Airport Operational Statistics

Aircraft based on the field: 1
Single engine airplanes: 1
    

Instrument Procedures

There are no published instrument procedures at 54WI.

Some nearby airports with instrument procedures:

3T3 - Boyceville Municipal Airport (11 nm E)
KRNH - New Richmond Regional Airport (14 nm NW)
KAHH - Amery Municipal Airport (17 nm N)
KLUM - Menomonie Municipal Airport-Score Field (19 nm E)
21D - Lake Elmo Airport (25 nm W)
 
Loc | Ops | Rwys | IFR | FBO | Links
Com | Nav | Svcs | Stats | Notes


 
Area around 54WI (Flyplassen Airport)
 
Road maps at: MapQuest Bing Google
 
Aerial photo
No photo
 
Sectional chart

 
Airport distance calculator
Flying to Flyplassen Airport? Find the distance to fly.

From to 54WI

Sunrise and sunset
Times for 23-Jul-2017
 Local
(UTC-5)
 Zulu
(UTC)
Morning civil twilight05:1110:11
Sunrise05:4610:46
Sunset20:4601:46
Evening civil twilight21:2002:20

Current date and time
Zulu (UTC)  23-Jul-2017 09:26:26
Local (UTC-5)  23-Jul-2017 04:26:26
 
METAR
KRNH 
14nm NW 
230855Z AUTO 29004KT 10SM BKN075 BKN110 18/15 A2983 RMK AO2 T01760152
KLUM 
19nm E 
230855Z AUTO 26004KT 10SM SCT070 SCT120 18/16 A2982 RMK AO2 T01820160
KOEO 
25nm NW 
230855Z AUTO 00000KT 10SM OVC070 18/18 A2985 RMK AO2 T01800180
K21D 
25nm W 
230912Z AUTO 31003KT 10SM BKN080 20/14 A2985 RMK AO2
TAF
KRNH 
14nm NW 
230520Z 2306/2406 31005KT P6SM SCT250 FM231700 33009KT P6SM SCT020 BKN035 FM232200 35009KT P6SM SKC
NOTAMs
Click for the latest NOTAMs
NOTAMs are issued by the DoD/FAA and will open in a separate window not controlled by AirNav.

 

 
 

Would you like to see your business listed on this page?

 If your business provides an interesting product or service to pilots, flight crews, aircraft, or users of the Flyplassen Airport, you should consider listing it here.  To start the listing process, click on the button below
 
Add a business
 

Other Pages about Flyplassen Airport

Update a link
 
Copyright © AirNav, LLC. All rights reserved. Privacy Policy  Contact